Terminal Aerodrome Forecast
Issued by NWS Wilmington, OH

Current Version | Previous Version | Text Only | Print | Product List | Glossary Off
Versions: 1 2 3 4 5 6 7 8 9 10 11 12 13 14 15 16 17

932
FTUS41 KILN 231734
TAFCMH
TAF
KCMH 231734Z 2318/2418 11008KT P6SM FEW120 BKN250
     FM240800 11008KT P6SM VCSH SCT025 OVC040
     FM241600 12008KT P6SM -SHRA OVC025=

USA.gov is the U.S. government's official web portal to all federal, state and local government web resources and services.